Time;durP1;ratioP1;P1;durP2;ratioP2;P2;SDS_P1;SDS_P2;PMS_P1;PMS_P2;Temp;Humidity;BMP_temperature;BMP_pressure;BME280_temperature;BME280_humidity;BME280_pressure;Samples;Min_cycle;Max_cycle;Signal;HPM_P1;HPM_P2
2020/12/01 00:01:36;;;;;;;39.95;20.83;;;1.70;75.80;;;;;;5030523;28;20137;-59
2020/12/01 00:04:02;;;;;;;44.47;20.55;;;1.80;75.90;;;;;;5029806;28;20030;-59
2020/12/01 00:06:31;;;;;;;40.92;20.58;;;1.80;75.90;;;;;;5029978;28;20038;-59
2020/12/01 00:08:57;;;;;;;40.70;19.85;;;1.80;75.90;;;;;;5028788;28;20037;-59
2020/12/01 00:11:22;;;;;;;40.45;19.38;;;1.80;75.90;;;;;;5025295;28;20034;-59
2020/12/01 00:13:48;;;;;;;38.60;19.08;;;1.80;75.90;;;;;;5031154;28;20045;-60
2020/12/01 00:16:14;;;;;;;41.10;19.88;;;1.80;75.80;;;;;;5046271;28;20037;-59
2020/12/01 00:18:40;;;;;;;38.85;19.30;;;1.80;75.70;;;;;;5029597;28;20036;-59
2020/12/01 00:21:14;;;;;;;41.97;19.63;;;1.80;75.70;;;;;;5042976;28;20108;-59
2020/12/01 00:23:40;;;;;;;39.20;19.20;;;1.80;75.70;;;;;;5031488;28;20033;-59
2020/12/01 00:26:06;;;;;;;38.70;19.52;;;1.80;75.60;;;;;;5030667;28;20123;-59
2020/12/01 00:28:32;;;;;;;38.38;18.85;;;1.80;75.70;;;;;;5028173;28;20038;-59
2020/12/01 00:30:59;;;;;;;38.33;19.45;;;1.80;75.70;;;;;;5028937;28;20032;-59
2020/12/01 00:33:25;;;;;;;42.67;20.42;;;1.80;75.70;;;;;;5030228;28;20030;-60
2020/12/01 00:35:50;;;;;;;37.85;19.17;;;1.80;75.70;;;;;;5040978;28;20041;-59
2020/12/01 00:38:16;;;;;;;41.47;20.30;;;1.80;75.80;;;;;;5029941;28;20041;-59
2020/12/01 00:40:42;;;;;;;42.08;19.98;;;1.80;75.80;;;;;;5032475;28;20041;-59
2020/12/01 00:43:07;;;;;;;39.60;19.80;;;1.80;75.90;;;;;;5029320;28;20121;-59
2020/12/01 00:45:33;;;;;;;40.75;20.20;;;1.80;75.90;;;;;;5027801;28;20115;-60
2020/12/01 00:47:58;;;;;;;40.63;19.75;;;1.80;75.90;;;;;;5028473;28;20029;-59
2020/12/01 00:50:25;;;;;;;42.50;19.80;;;1.80;76.00;;;;;;5029091;28;20037;-59
2020/12/01 00:52:52;;;;;;;40.25;20.10;;;1.80;76.10;;;;;;5021142;28;20075;-60
2020/12/01 00:55:17;;;;;;;38.78;18.83;;;1.80;76.10;;;;;;5031844;28;20030;-59
2020/12/01 00:57:43;;;;;;;38.40;19.25;;;1.80;76.50;;;;;;5026450;28;20040;-59
2020/12/01 01:00:14;;;;;;;38.97;18.67;;;1.80;76.20;;;;;;5027433;28;20036;-59
2020/12/01 01:02:40;;;;;;;40.65;20.05;;;1.80;76.20;;;;;;5031588;28;20599;-59
2020/12/01 01:05:06;;;;;;;42.35;20.45;;;1.90;76.30;;;;;;5031680;28;20056;-59
2020/12/01 01:07:31;;;;;;;39.65;19.52;;;1.90;76.30;;;;;;5028832;28;20057;-59
2020/12/01 01:09:57;;;;;;;42.40;20.27;;;1.90;76.40;;;;;;5030322;28;20033;-59
2020/12/01 01:12:22;;;;;;;40.45;20.13;;;1.90;76.40;;;;;;5019547;28;20045;-59
2020/12/01 01:14:48;;;;;;;40.88;20.05;;;1.90;76.40;;;;;;5030118;28;20029;-59
2020/12/01 01:17:14;;;;;;;41.63;19.30;;;1.90;76.40;;;;;;5020778;28;20030;-59
2020/12/01 01:19:39;;;;;;;42.13;20.95;;;2.00;76.40;;;;;;5024676;28;20045;-59
2020/12/01 01:22:05;;;;;;;41.42;20.23;;;2.00;76.40;;;;;;5021690;28;20501;-59
2020/12/01 01:24:31;;;;;;;40.33;20.25;;;2.00;76.40;;;;;;5025059;28;20055;-59
2020/12/01 01:26:56;;;;;;;41.33;19.13;;;2.00;76.40;;;;;;5027119;28;20044;-59
2020/12/01 01:29:23;;;;;;;42.40;20.55;;;2.00;76.40;;;;;;5026409;28;20029;-59
2020/12/01 01:31:53;;;;;;;39.63;20.05;;;2.00;76.40;;;;;;5025264;28;20041;-59
2020/12/01 01:34:19;;;;;;;41.20;19.48;;;2.00;76.40;;;;;;5027254;28;20116;-59
2020/12/01 01:36:44;;;;;;;43.58;20.65;;;2.00;76.40;;;;;;5034697;28;20117;-60
2020/12/01 01:39:10;;;;;;;40.63;19.73;;;2.00;76.40;;;;;;5035557;28;20058;-59
2020/12/01 01:41:38;;;;;;;44.40;20.63;;;2.10;76.40;;;;;;5029644;28;20026;-59
2020/12/01 01:44:23;;;;;;;42.28;20.40;;;2.10;76.30;;;;;;5028765;28;20394;-59
2020/12/01 01:46:52;;;;;;;41.10;18.80;;;2.10;76.40;;;;;;5023755;28;20057;-59
2020/12/01 01:49:22;;;;;;;36.50;19.02;;;2.10;76.30;;;;;;5029618;28;20040;-59
2020/12/01 01:51:53;;;;;;;43.13;20.60;;;2.10;76.30;;;;;;5009703;28;20037;-59
2020/12/01 01:54:20;;;;;;;40.60;19.58;;;2.10;76.40;;;;;;5025012;28;20112;-59
2020/12/01 01:56:52;;;;;;;40.60;18.83;;;2.10;76.50;;;;;;5023195;28;20033;-59
2020/12/01 01:59:18;;;;;;;43.40;20.38;;;2.10;76.50;;;;;;5027035;28;20052;-59
2020/12/01 02:01:44;;;;;;;40.30;19.80;;;2.10;76.40;;;;;;5024333;28;20046;-59
2020/12/01 02:04:13;;;;;;;42.17;20.08;;;2.10;76.40;;;;;;5029450;28;20037;-59
2020/12/01 02:06:54;;;;;;;41.25;19.88;;;2.20;76.40;;;;;;5022547;28;20502;-59
2020/12/01 02:09:28;;;;;;;39.40;18.88;;;2.20;76.40;;;;;;5018889;28;20036;-59
2020/12/01 02:11:57;;;;;;;42.35;20.35;;;2.20;76.30;;;;;;5020444;28;20033;-59
2020/12/01 02:15:04;;;;;;;39.78;19.67;;;2.20;76.30;;;;;;5024458;28;20513;-59
2020/12/01 02:17:33;;;;;;;42.03;20.23;;;2.20;76.40;;;;;;5026763;28;20029;-59
2020/12/01 02:20:15;;;;;;;40.80;19.73;;;2.20;76.20;;;;;;5027192;28;20029;-59
2020/12/01 02:22:47;;;;;;;44.83;20.77;;;2.20;76.30;;;;;;5027641;28;20060;-59
2020/12/01 02:25:15;;;;;;;45.53;20.60;;;2.20;76.30;;;;;;5020837;28;20106;-59
2020/12/01 02:27:41;;;;;;;42.08;19.73;;;2.20;76.40;;;;;;5028556;28;20076;-59
2020/12/01 02:30:11;;;;;;;40.90;19.50;;;2.20;76.40;;;;;;5028698;28;20506;-59
2020/12/01 02:32:38;;;;;;;44.17;20.80;;;2.20;76.40;;;;;;5019401;28;20072;-59
2020/12/01 02:35:10;;;;;;;43.35;19.70;;;2.20;76.50;;;;;;5031873;28;20083;-59
2020/12/01 02:37:37;;;;;;;44.75;20.13;;;2.20;76.50;;;;;;5037577;28;20502;-59
2020/12/01 02:40:06;;;;;;;40.58;19.75;;;2.20;76.60;;;;;;5030342;28;20120;-59
2020/12/01 02:42:32;;;;;;;44.70;21.20;;;2.20;76.60;;;;;;5029421;28;20038;-58
2020/12/01 02:44:58;;;;;;;45.45;21.08;;;2.20;76.70;;;;;;5040228;28;20041;-59
2020/12/01 02:47:24;;;;;;;43.42;20.95;;;2.20;76.80;;;;;;5031574;28;20033;-59
2020/12/01 02:49:50;;;;;;;43.42;20.52;;;2.20;77.00;;;;;;5032827;28;20495;-59
2020/12/01 02:52:15;;;;;;;47.40;21.50;;;2.20;77.00;;;;;;5031577;28;20034;-59
2020/12/01 02:54:41;;;;;;;46.67;21.77;;;2.10;77.10;;;;;;5028708;28;20425;-59
2020/12/01 02:57:07;;;;;;;45.30;21.20;;;2.10;77.30;;;;;;5029505;28;20033;-59
2020/12/01 02:59:32;;;;;;;44.58;21.52;;;2.10;77.40;;;;;;5041829;28;20033;-59
2020/12/01 03:01:58;;;;;;;47.85;22.92;;;2.10;77.60;;;;;;5036083;28;20037;-59
2020/12/01 03:04:24;;;;;;;43.60;20.63;;;2.10;77.80;;;;;;5035597;28;20036;-59
2020/12/01 03:06:50;;;;;;;44.72;21.08;;;2.10;77.90;;;;;;5027755;28;20033;-59
2020/12/01 03:09:18;;;;;;;42.45;20.55;;;2.10;77.60;;;;;;5031724;28;20021;-59
2020/12/01 03:11:44;;;;;;;38.88;19.52;;;2.10;77.80;;;;;;5025679;28;20041;-59
2020/12/01 03:14:10;;;;;;;38.75;18.40;;;2.10;77.90;;;;;;5028811;28;20025;-59
2020/12/01 03:16:36;;;;;;;41.80;20.90;;;2.10;78.00;;;;;;5036740;28;20033;-60
2020/12/01 03:19:03;;;;;;;41.13;19.27;;;2.00;78.20;;;;;;5029283;28;20029;-59
2020/12/01 03:21:28;;;;;;;47.05;22.27;;;2.00;78.60;;;;;;5031896;28;20033;-59
2020/12/01 03:23:54;;;;;;;45.22;20.85;;;2.00;79.00;;;;;;5031982;28;20030;-59
2020/12/01 03:26:21;;;;;;;40.00;19.77;;;2.00;79.10;;;;;;5030784;28;20041;-59
2020/12/01 03:28:47;;;;;;;43.95;20.17;;;2.00;79.20;;;;;;5041240;28;20409;-59
2020/12/01 03:31:15;;;;;;;44.97;21.20;;;2.10;80.20;;;;;;5030686;28;20059;-59
2020/12/01 03:33:41;;;;;;;45.47;20.70;;;2.10;79.50;;;;;;5029709;28;20494;-59
2020/12/01 03:36:07;;;;;;;40.25;19.05;;;2.10;79.50;;;;;;5046791;28;20052;-59
2020/12/01 03:38:32;;;;;;;44.65;20.48;;;2.10;79.30;;;;;;5030915;28;20038;-59
2020/12/01 03:40:58;;;;;;;43.30;19.70;;;2.20;79.70;;;;;;5028227;28;20032;-59
2020/12/01 03:43:24;;;;;;;41.92;19.08;;;2.20;79.70;;;;;;5031023;28;20505;-59
2020/12/01 03:45:50;;;;;;;39.72;19.63;;;2.20;79.70;;;;;;5027535;28;20045;-59
2020/12/01 03:48:15;;;;;;;39.40;18.67;;;2.20;79.60;;;;;;5036020;28;20513;-59
2020/12/01 03:50:41;;;;;;;38.78;19.35;;;2.20;79.70;;;;;;5027785;28;20398;-58
2020/12/01 03:53:07;;;;;;;41.60;19.98;;;2.30;79.70;;;;;;5023697;28;20083;-59
2020/12/01 03:55:32;;;;;;;40.50;19.33;;;2.30;79.70;;;;;;5031916;28;20045;-59
2020/12/01 03:57:59;;;;;;;40.72;18.95;;;2.30;79.70;;;;;;5030494;28;20447;-59
2020/12/01 04:00:27;;;;;;;38.85;19.17;;;2.30;79.50;;;;;;5034730;28;20057;-58
2020/12/01 04:02:54;;;;;;;41.88;20.17;;;2.30;79.50;;;;;;5033238;28;20037;-59
2020/12/01 04:05:23;;;;;;;37.85;18.17;;;2.40;79.50;;;;;;5030165;28;20060;-59
2020/12/01 04:07:53;;;;;;;39.45;19.92;;;2.30;79.30;;;;;;5034101;28;20445;-59
2020/12/01 04:10:21;;;;;;;40.72;19.42;;;2.30;79.40;;;;;;5029929;28;20033;-59
2020/12/01 04:12:47;;;;;;;37.95;20.20;;;2.40;79.50;;;;;;5028205;28;20041;-59
2020/12/01 04:15:15;;;;;;;38.25;18.92;;;2.30;79.70;;;;;;5026975;28;20053;-59
2020/12/01 04:17:41;;;;;;;38.00;18.40;;;2.30;79.80;;;;;;5028682;28;20036;-59
2020/12/01 04:20:07;;;;;;;35.58;18.48;;;2.30;79.90;;;;;;5029311;28;20034;-59
2020/12/01 04:22:33;;;;;;;38.28;19.13;;;2.30;80.00;;;;;;5028989;28;20064;-59
2020/12/01 04:25:00;;;;;;;38.20;19.17;;;2.30;79.90;;;;;;5035242;28;20146;-59
2020/12/01 04:27:26;;;;;;;35.97;18.52;;;2.30;79.90;;;;;;5033682;28;20429;-59
2020/12/01 04:29:51;;;;;;;34.55;18.40;;;2.30;80.00;;;;;;5027814;28;20033;-59
2020/12/01 04:32:17;;;;;;;34.13;18.17;;;2.30;80.00;;;;;;5028981;28;20033;-59
2020/12/01 04:34:42;;;;;;;36.05;18.10;;;2.30;80.10;;;;;;5026501;28;20039;-59
2020/12/01 04:37:09;;;;;;;35.97;17.75;;;2.30;80.20;;;;;;5021115;28;20343;-59
2020/12/01 04:39:35;;;;;;;41.33;21.63;;;2.30;80.30;;;;;;5023339;28;20041;-59
2020/12/01 04:42:02;;;;;;;36.00;17.98;;;2.30;80.20;;;;;;5025809;28;20034;-59
2020/12/01 04:44:35;;;;;;;35.50;18.80;;;2.30;80.20;;;;;;5033910;28;20033;-58
2020/12/01 04:47:06;;;;;;;34.28;17.85;;;2.30;80.20;;;;;;5021204;28;20105;-59
2020/12/01 04:49:37;;;;;;;33.28;17.98;;;2.40;80.50;;;;;;5027750;28;20040;-59
2020/12/01 04:52:34;;;;;;;33.30;17.65;;;2.30;80.40;;;;;;5021166;28;20021;-59
2020/12/01 04:55:33;;;;;;;33.05;17.25;;;2.30;80.90;;;;;;5027499;28;20017;-59
2020/12/01 04:58:32;;;;;;;30.50;16.08;;;2.30;80.60;;;;;;5022099;28;20056;-59
2020/12/01 05:01:09;;;;;;;32.75;16.95;;;2.30;80.90;;;;;;5008938;28;20034;-59
2020/12/01 05:03:55;;;;;;;33.70;16.73;;;2.30;80.60;;;;;;5039780;28;20037;-59
2020/12/01 05:06:48;;;;;;;32.40;16.60;;;2.30;80.90;;;;;;5027109;28;20048;-59
2020/12/01 05:09:26;;;;;;;32.10;17.48;;;2.30;80.70;;;;;;5035521;28;20408;-59
2020/12/01 05:11:58;;;;;;;31.52;16.77;;;2.30;80.90;;;;;;5023345;28;20091;-59
2020/12/01 05:14:37;;;;;;;31.13;16.77;;;2.40;81.10;;;;;;5023993;28;20564;-59
2020/12/01 05:17:14;;;;;;;28.85;15.82;;;2.40;81.00;;;;;;5025684;28;20045;-59
2020/12/01 05:19:44;;;;;;;33.75;18.67;;;2.40;81.20;;;;;;5022155;28;20034;-59
2020/12/01 05:22:12;;;;;;;32.58;18.38;;;2.40;80.90;;;;;;5020924;28;20037;-59
2020/12/01 05:24:47;;;;;;;28.88;16.08;;;2.40;81.30;;;;;;5025723;28;20061;-59
2020/12/01 05:27:30;;;;;;;27.63;14.75;;;2.40;81.10;;;;;;5028338;28;20034;-59
2020/12/01 05:30:18;;;;;;;26.90;14.48;;;2.50;81.30;;;;;;5028550;28;20075;-59
2020/12/01 05:33:16;;;;;;;25.42;14.93;;;2.50;81.20;;;;;;5026969;28;20287;-59
2020/12/01 05:35:42;;;;;;;26.60;13.82;;;2.50;81.40;;;;;;5032393;28;20092;-59
2020/12/01 05:38:18;;;;;;;22.48;12.63;;;2.50;80.80;;;;;;5028307;28;20033;-59
2020/12/01 05:40:50;;;;;;;23.55;12.80;;;2.50;81.20;;;;;;5026704;28;20079;-59
2020/12/01 05:43:36;;;;;;;25.30;12.88;;;2.50;81.00;;;;;;5036875;28;20505;-59
2020/12/01 05:46:16;;;;;;;22.70;12.45;;;2.50;81.40;;;;;;5036705;28;20486;-59
2020/12/01 05:48:53;;;;;;;21.77;12.27;;;2.50;81.20;;;;;;5028399;28;20053;-59
2020/12/01 05:51:27;;;;;;;26.10;14.73;;;2.50;81.10;;;;;;5025527;28;20509;-59
2020/12/01 05:53:58;;;;;;;19.80;11.97;;;2.50;81.20;;;;;;5030037;28;20048;-59
2020/12/01 05:56:24;;;;;;;22.80;14.32;;;2.50;81.20;;;;;;5014271;28;20414;-59
2020/12/01 05:59:05;;;;;;;19.88;12.23;;;2.50;81.10;;;;;;5024634;28;20034;-58
2020/12/01 06:01:42;;;;;;;19.27;11.15;;;2.60;81.40;;;;;;5018557;28;20029;-59
2020/12/01 06:04:13;;;;;;;20.30;12.05;;;2.60;81.30;;;;;;5031830;28;20037;-58
2020/12/01 06:07:05;;;;;;;22.58;13.60;;;2.50;81.20;;;;;;5029792;28;20045;-58
2020/12/01 06:09:41;;;;;;;23.58;13.93;;;2.60;81.60;;;;;;5049346;28;20032;-59
2020/12/01 06:12:33;;;;;;;24.90;14.25;;;2.60;81.30;;;;;;5029380;28;20048;-59
2020/12/01 06:15:11;;;;;;;36.58;19.40;;;2.60;81.90;;;;;;5028542;28;20037;-59
2020/12/01 06:17:51;;;;;;;28.60;16.90;;;2.60;81.40;;;;;;5027330;28;20052;-59
2020/12/01 06:20:20;;;;;;;36.60;19.05;;;2.60;81.60;;;;;;5024198;28;20045;-58
2020/12/01 06:23:23;;;;;;;36.45;19.23;;;2.60;81.40;;;;;;5030789;28;20119;-59
2020/12/01 06:26:20;;;;;;;35.42;18.98;;;2.70;81.90;;;;;;5049469;28;20033;-59
2020/12/01 06:29:24;;;;;;;45.00;20.25;;;2.70;81.70;;;;;;5026728;28;20091;-59
2020/12/01 06:32:03;;;;;;;48.38;20.52;;;2.70;81.70;;;;;;5026931;28;20122;-59
2020/12/01 06:34:47;;;;;;;46.80;22.75;;;2.70;81.50;;;;;;5028878;28;20383;-59
2020/12/01 06:37:19;;;;;;;43.40;22.95;;;2.70;81.40;;;;;;5041842;28;20037;-59
2020/12/01 06:39:48;;;;;;;44.63;21.65;;;2.70;81.40;;;;;;5025953;28;20045;-59
2020/12/01 06:42:24;;;;;;;45.03;20.23;;;2.70;81.50;;;;;;5028260;28;20369;-59
2020/12/01 06:44:55;;;;;;;42.20;22.40;;;2.70;81.80;;;;;;5009335;28;20034;-59
2020/12/01 06:47:28;;;;;;;39.30;19.23;;;2.70;81.60;;;;;;5026947;28;20041;-59
2020/12/01 06:49:59;;;;;;;42.08;20.63;;;2.70;81.60;;;;;;5026358;28;20413;-59
2020/12/01 06:52:26;;;;;;;40.67;21.15;;;2.70;81.60;;;;;;5028162;28;20101;-58
2020/12/01 06:54:55;;;;;;;35.70;19.73;;;2.70;81.60;;;;;;5033673;28;20044;-58
2020/12/01 06:57:35;;;;;;;41.65;20.52;;;2.70;81.60;;;;;;5026307;28;20041;-59
2020/12/01 07:00:05;;;;;;;36.53;19.27;;;2.80;81.90;;;;;;5030267;28;20034;-59
2020/12/01 07:02:37;;;;;;;31.23;18.27;;;2.80;81.60;;;;;;5027417;28;20068;-58
2020/12/01 07:05:11;;;;;;;28.15;16.30;;;2.80;81.70;;;;;;5043480;28;20406;-58
2020/12/01 07:07:41;;;;;;;28.27;15.63;;;2.80;81.60;;;;;;5019503;28;20037;-58
2020/12/01 07:10:21;;;;;;;24.27;13.65;;;2.80;81.60;;;;;;5028302;28;20759;-59
2020/12/01 07:12:53;;;;;;;21.25;12.40;;;2.80;81.90;;;;;;5027894;28;20041;-58
2020/12/01 07:15:34;;;;;;;21.83;13.13;;;2.80;81.60;;;;;;5026668;28;20448;-58
2020/12/01 07:18:20;;;;;;;18.73;11.52;;;2.90;81.80;;;;;;5022548;28;20033;-58
2020/12/01 07:21:23;;;;;;;19.17;11.38;;;2.90;81.80;;;;;;5012048;28;20524;-58
2020/12/01 07:24:19;;;;;;;17.23;10.65;;;2.90;81.80;;;;;;5040915;28;20379;-58
2020/12/01 07:27:29;;;;;;;16.38;10.18;;;2.90;81.80;;;;;;5033484;28;20037;-58
2020/12/01 07:30:26;;;;;;;13.68;8.43;;;2.90;81.70;;;;;;5024425;28;20452;-58
2020/12/01 07:32:58;;;;;;;14.98;9.30;;;3.00;81.60;;;;;;5011787;28;20033;-58
2020/12/01 07:35:45;;;;;;;14.57;8.50;;;3.00;81.50;;;;;;5020619;28;20029;-58
2020/12/01 07:38:42;;;;;;;12.65;7.93;;;3.00;81.80;;;;;;5017081;28;20033;-58
2020/12/01 07:41:11;;;;;;;14.15;8.45;;;3.00;81.60;;;;;;5017567;28;20513;-58
2020/12/01 07:43:36;;;;;;;15.32;9.70;;;3.00;82.30;;;;;;5033573;28;20080;-58
2020/12/01 07:46:03;;;;;;;12.68;8.70;;;3.00;81.50;;;;;;5031752;28;20050;-58
2020/12/01 07:48:29;;;;;;;17.23;11.57;;;3.00;81.50;;;;;;5031338;28;20098;-58
2020/12/01 07:51:07;;;;;;;24.13;16.30;;;3.00;81.50;;;;;;5031927;28;20029;-58
2020/12/01 07:53:38;;;;;;;13.35;8.93;;;3.10;81.80;;;;;;5030932;28;20045;-58
2020/12/01 07:56:07;;;;;;;13.07;9.43;;;3.10;81.60;;;;;;5027134;28;20088;-57
2020/12/01 07:58:33;;;;;;;11.50;8.48;;;3.10;81.60;;;;;;5033306;28;20570;-58
2020/12/01 08:01:01;;;;;;;11.18;6.88;;;3.10;81.50;;;;;;5036942;28;20125;-58
2020/12/01 08:03:35;;;;;;;11.45;6.85;;;3.10;81.60;;;;;;5023273;28;20045;-58
2020/12/01 08:06:06;;;;;;;11.02;6.80;;;3.10;81.60;;;;;;5025051;28;20077;-58
2020/12/01 08:08:34;;;;;;;11.00;6.95;;;3.20;81.60;;;;;;5030401;28;20041;-58
2020/12/01 08:11:05;;;;;;;10.30;6.93;;;3.20;81.60;;;;;;5025632;28;20030;-58
2020/12/01 08:13:33;;;;;;;10.48;6.63;;;3.20;81.70;;;;;;5030024;28;20460;-58
2020/12/01 08:16:24;;;;;;;8.52;5.72;;;3.20;81.60;;;;;;5045075;28;20299;-58
2020/12/01 08:18:52;;;;;;;9.63;5.85;;;3.20;81.80;;;;;;5008786;28;20030;-58
2020/12/01 08:21:29;;;;;;;8.35;5.97;;;3.30;81.70;;;;;;5008427;28;20033;-58
2020/12/01 08:24:00;;;;;;;9.77;6.18;;;3.30;81.70;;;;;;5004047;28;20036;-58
2020/12/01 08:26:33;;;;;;;15.85;9.20;;;3.40;81.60;;;;;;5005839;28;20038;-58
2020/12/01 08:29:20;;;;;;;12.35;8.18;;;3.40;81.50;;;;;;5011785;28;20030;-58
2020/12/01 08:32:16;;;;;;;14.77;9.20;;;3.40;81.30;;;;;;5009589;28;20057;-58
2020/12/01 08:35:13;;;;;;;42.10;16.48;;;3.50;81.60;;;;;;5010182;28;20549;-58
2020/12/01 08:38:03;;;;;;;45.72;15.70;;;3.50;81.50;;;;;;5006864;28;20402;-58
2020/12/01 08:40:37;;;;;;;60.53;28.42;;;3.50;81.30;;;;;;5008483;28;20057;-58
2020/12/01 08:43:38;;;;;;;28.52;15.73;;;3.50;81.40;;;;;;5009551;28;20506;-58
2020/12/01 08:46:10;;;;;;;12.88;7.72;;;3.50;81.60;;;;;;5011822;28;20061;-58
2020/12/01 08:48:38;;;;;;;14.05;10.07;;;3.50;81.30;;;;;;5007335;28;20040;-58
2020/12/01 08:51:17;;;;;;;10.75;8.02;;;3.60;81.30;;;;;;5010485;28;20022;-58
2020/12/01 08:53:45;;;;;;;8.98;7.00;;;3.60;81.60;;;;;;5010461;28;20026;-58
2020/12/01 08:56:20;;;;;;;10.60;7.35;;;3.60;81.30;;;;;;5010802;28;20069;-58
2020/12/01 08:58:50;;;;;;;10.45;7.00;;;3.60;81.40;;;;;;5005949;28;20030;-58
2020/12/01 09:01:17;;;;;;;8.60;6.45;;;3.70;81.30;;;;;;5014997;28;20084;-58
2020/12/01 09:03:55;;;;;;;8.70;5.93;;;3.70;81.20;;;;;;5030896;28;20545;-58
2020/12/01 09:06:35;;;;;;;8.27;6.25;;;3.70;81.40;;;;;;5028523;28;20038;-58
2020/12/01 09:09:07;;;;;;;9.82;6.78;;;3.70;81.30;;;;;;5034412;28;20030;-58
2020/12/01 09:14:37;;;;;;;8.20;5.75;;;3.80;81.40;;;;;;5030574;28;20036;-58
2020/12/01 09:22:47;;;;;;;7.38;5.80;;;3.90;81.10;;;;;;5010530;28;20084;-58
2020/12/01 09:25:26;;;;;;;8.10;5.47;;;4.00;81.00;;;;;;5009626;28;20137;-58
2020/12/01 09:27:53;;;;;;;8.88;5.78;;;4.00;81.20;;;;;;5007933;28;20045;-58
2020/12/01 09:30:24;;;;;;;7.78;5.97;;;4.00;80.90;;;;;;5010621;28;20083;-58
2020/12/01 09:32:50;;;;;;;8.25;5.70;;;4.10;80.90;;;;;;5026538;28;20029;-58
2020/12/01 09:35:16;;;;;;;8.30;5.40;;;4.10;80.60;;;;;;5030010;28;20547;-58
2020/12/01 09:37:42;;;;;;;10.90;6.97;;;4.10;80.40;;;;;;5029297;28;20040;-58
2020/12/01 09:40:08;;;;;;;11.90;7.72;;;4.10;80.40;;;;;;5040076;28;20037;-58
2020/12/01 09:42:37;;;;;;;11.77;7.47;;;4.10;80.40;;;;;;5030268;28;20087;-58
2020/12/01 09:45:16;;;;;;;9.82;6.82;;;4.10;80.40;;;;;;5028923;28;20037;-58
2020/12/01 09:47:56;;;;;;;13.60;9.02;;;4.10;80.40;;;;;;5029488;28;20052;-58
2020/12/01 09:50:26;;;;;;;15.75;11.13;;;4.10;80.50;;;;;;5028836;28;20026;-58
2020/12/01 09:55:40;;;;;;;11.65;7.80;;;4.10;80.80;;;;;;5030196;28;20029;-59
2020/12/01 10:08:59;;;;;;;12.90;9.88;;;4.20;80.20;;;;;;5001398;28;20395;-59
2020/12/01 10:36:21;;;;;;;13.25;8.07;;;4.30;80.40;;;;;;5009473;28;20410;-59
2020/12/01 10:38:47;;;;;;;14.35;9.07;;;4.30;80.50;;;;;;5010973;28;20034;-59
2020/12/01 10:41:12;;;;;;;12.57;8.25;;;4.30;80.60;;;;;;5005569;28;20599;-59
2020/12/01 10:43:39;;;;;;;9.80;6.75;;;4.30;80.70;;;;;;5012345;28;20541;-59
2020/12/01 10:46:05;;;;;;;7.80;5.75;;;4.40;80.80;;;;;;5009589;28;20046;-59
2020/12/01 10:48:30;;;;;;;8.32;5.78;;;4.40;80.70;;;;;;5008437;28;20415;-59
2020/12/01 10:50:56;;;;;;;7.53;5.57;;;4.40;80.60;;;;;;5009081;28;20514;-59
2020/12/01 10:53:22;;;;;;;7.60;5.65;;;4.50;80.50;;;;;;5009183;28;20030;-60
2020/12/01 10:55:47;;;;;;;7.25;5.25;;;4.50;80.40;;;;;;5006267;28;20061;-60
2020/12/01 10:58:13;;;;;;;7.43;5.35;;;4.50;80.50;;;;;;5009165;28;20065;-60
2020/12/01 11:00:38;;;;;;;6.15;5.45;;;4.50;80.40;;;;;;5016031;28;20038;-60
2020/12/01 11:03:04;;;;;;;6.65;4.80;;;4.50;80.20;;;;;;5011117;28;20042;-59
2020/12/01 11:05:31;;;;;;;6.35;4.93;;;4.60;80.20;;;;;;5011097;28;20030;-60
2020/12/01 11:07:57;;;;;;;6.32;5.13;;;4.60;80.20;;;;;;5021879;28;20026;-60
2020/12/01 11:10:24;;;;;;;7.50;5.35;;;4.60;80.10;;;;;;5007130;28;20041;-60
2020/12/01 11:12:50;;;;;;;6.88;5.35;;;4.60;80.10;;;;;;5013018;28;20402;-60
2020/12/01 11:15:16;;;;;;;7.75;5.15;;;4.60;80.00;;;;;;5010376;28;20101;-60
2020/12/01 11:17:42;;;;;;;6.78;5.07;;;4.70;80.00;;;;;;5012361;28;20037;-60
2020/12/01 11:20:11;;;;;;;6.43;4.85;;;4.70;80.00;;;;;;5020107;28;20527;-60
2020/12/01 11:22:36;;;;;;;7.47;5.53;;;4.70;79.90;;;;;;5010052;28;20037;-60
2020/12/01 11:25:03;;;;;;;8.65;5.60;;;4.70;79.90;;;;;;5012480;28;20034;-60
2020/12/01 11:27:29;;;;;;;8.32;5.70;;;4.70;79.90;;;;;;5008124;28;20037;-60
2020/12/01 11:29:55;;;;;;;9.05;6.13;;;4.70;80.00;;;;;;5012911;28;20372;-60
2020/12/01 11:32:21;;;;;;;7.88;5.60;;;4.70;80.00;;;;;;5010559;28;20117;-60
2020/12/01 11:34:46;;;;;;;7.60;5.07;;;4.80;80.00;;;;;;5016310;28;20134;-60
2020/12/01 11:37:12;;;;;;;7.50;5.20;;;4.80;80.00;;;;;;5016066;28;20126;-60
2020/12/01 11:39:37;;;;;;;7.18;4.82;;;4.80;80.00;;;;;;5013411;28;20083;-60
2020/12/01 11:42:03;;;;;;;7.18;5.28;;;4.90;79.90;;;;;;5007537;28;20038;-60
2020/12/01 11:44:29;;;;;;;7.80;5.38;;;4.90;79.90;;;;;;5020916;28;20042;-60
2020/12/01 11:46:56;;;;;;;6.63;5.00;;;4.90;79.70;;;;;;5013026;28;20026;-60
2020/12/01 11:49:23;;;;;;;8.18;5.68;;;4.90;79.70;;;;;;5008886;28;20030;-60
2020/12/01 11:51:49;;;;;;;8.02;5.82;;;4.90;79.70;;;;;;5010739;28;20034;-60
2020/12/01 11:54:15;;;;;;;6.95;5.35;;;4.90;79.70;;;;;;5012404;28;20033;-61
2020/12/01 11:56:41;;;;;;;9.27;6.13;;;4.90;79.70;;;;;;5014319;28;20037;-61
2020/12/01 11:59:07;;;;;;;8.63;5.82;;;4.90;79.50;;;;;;5013279;28;20029;-61
2020/12/01 12:01:36;;;;;;;8.82;5.90;;;4.80;79.30;;;;;;5011367;28;20034;-61
2020/12/01 12:04:03;;;;;;;7.25;5.13;;;4.80;79.50;;;;;;5008146;28;20034;-61
2020/12/01 12:06:29;;;;;;;7.07;5.13;;;4.80;79.50;;;;;;5010025;28;20037;-61
2020/12/01 12:08:55;;;;;;;6.38;4.80;;;4.80;79.70;;;;;;5012346;28;20026;-61
2020/12/01 12:11:20;;;;;;;7.28;4.82;;;4.70;79.70;;;;;;5009260;28;20057;-61
2020/12/01 12:13:46;;;;;;;6.25;4.80;;;4.80;79.90;;;;;;5002748;28;20805;-61
2020/12/01 12:16:17;;;;;;;6.55;4.80;;;4.80;80.80;;;;;;5016508;28;20040;-61
2020/12/01 12:18:44;;;;;;;6.18;4.78;;;4.80;80.10;;;;;;5013575;28;20112;-61
2020/12/01 12:21:09;;;;;;;7.68;5.00;;;4.80;80.20;;;;;;5018971;28;20108;-61
2020/12/01 12:23:35;;;;;;;7.05;5.25;;;4.80;80.10;;;;;;5016479;28;20129;-61
2020/12/01 12:26:01;;;;;;;8.13;5.72;;;4.80;80.00;;;;;;5009134;28;20061;-61
2020/12/01 12:28:26;;;;;;;7.45;5.40;;;4.80;80.10;;;;;;5018402;28;20076;-61
2020/12/01 12:30:52;;;;;;;7.45;5.05;;;4.90;80.10;;;;;;5011090;28;20056;-61
2020/12/01 12:33:18;;;;;;;5.93;4.90;;;4.90;80.00;;;;;;5009978;28;20086;-61
2020/12/01 12:35:44;;;;;;;6.43;4.90;;;4.90;79.90;;;;;;5018566;28;20044;-61
2020/12/01 12:38:10;;;;;;;7.05;5.13;;;5.00;80.00;;;;;;5010471;28;20030;-61
2020/12/01 12:40:35;;;;;;;6.50;5.47;;;4.90;79.90;;;;;;5007780;28;20037;-61
2020/12/01 12:43:01;;;;;;;7.18;5.35;;;5.00;79.90;;;;;;5016323;28;20041;-61
2020/12/01 12:45:27;;;;;;;7.82;5.60;;;5.00;79.70;;;;;;5012409;28;20026;-61
2020/12/01 12:47:53;;;;;;;8.95;5.53;;;5.00;79.80;;;;;;5010416;28;20034;-61
2020/12/01 12:50:19;;;;;;;9.27;5.85;;;5.00;79.90;;;;;;5011377;28;20030;-61
2020/12/01 12:52:44;;;;;;;7.85;5.63;;;5.00;79.90;;;;;;5009825;28;20128;-61
2020/12/01 12:55:10;;;;;;;6.65;5.10;;;4.90;79.90;;;;;;5013082;28;20205;-61
2020/12/01 12:57:36;;;;;;;6.57;5.15;;;5.00;80.00;;;;;;5010250;28;20370;-61
2020/12/01 13:00:09;;;;;;;5.05;4.40;;;5.00;79.90;;;;;;5012489;28;20494;-61
2020/12/01 13:02:34;;;;;;;6.35;4.80;;;5.00;79.70;;;;;;5008911;28;20136;-61
2020/12/01 13:05:00;;;;;;;6.10;4.78;;;5.00;79.70;;;;;;5017794;28;20546;-61
2020/12/01 13:07:26;;;;;;;6.93;5.32;;;5.10;79.70;;;;;;5009235;28;20022;-61
2020/12/01 13:09:51;;;;;;;6.57;4.88;;;5.10;79.70;;;;;;5008791;28;20034;-61
2020/12/01 13:12:17;;;;;;;6.93;5.45;;;5.10;79.60;;;;;;5011678;28;20026;-61
2020/12/01 13:14:43;;;;;;;7.25;5.55;;;5.10;79.60;;;;;;5009517;28;20033;-61
2020/12/01 13:17:08;;;;;;;7.25;5.32;;;5.10;79.60;;;;;;5009318;28;20026;-61
2020/12/01 13:19:34;;;;;;;8.40;6.05;;;5.20;79.70;;;;;;5008950;28;20026;-61
2020/12/01 13:22:00;;;;;;;6.47;5.15;;;5.20;79.50;;;;;;5008212;28;20092;-61
2020/12/01 13:24:25;;;;;;;8.07;5.80;;;5.20;79.30;;;;;;5012396;28;20062;-61
2020/12/01 13:26:52;;;;;;;14.80;9.98;;;5.20;79.20;;;;;;5008360;28;20041;-61
2020/12/01 13:29:17;;;;;;;8.75;6.38;;;5.20;79.00;;;;;;5010481;28;20030;-61
2020/12/01 13:31:47;;;;;;;6.78;5.45;;;5.10;79.00;;;;;;5007943;28;20566;-61
2020/12/01 13:34:12;;;;;;;8.32;5.47;;;5.10;79.00;;;;;;5009366;28;20041;-61
2020/12/01 13:36:38;;;;;;;6.40;5.38;;;5.00;79.00;;;;;;5015068;28;20038;-61
2020/12/01 13:39:04;;;;;;;7.20;5.63;;;5.00;79.10;;;;;;5010473;28;20541;-61
2020/12/01 13:41:29;;;;;;;5.75;5.10;;;5.00;79.20;;;;;;4999294;28;20720;-61
2020/12/01 13:43:55;;;;;;;6.93;5.60;;;4.90;79.20;;;;;;5018644;28;20036;-61
2020/12/01 13:46:21;;;;;;;7.18;5.70;;;4.90;79.30;;;;;;5009990;28;20037;-61
2020/12/01 13:48:46;;;;;;;9.00;6.07;;;4.80;79.40;;;;;;5009330;28;20030;-61